Time;durP1;ratioP1;P1;durP2;ratioP2;P2;SDS_P1;SDS_P2;PMS_P1;PMS_P2;Temp;Humidity;BMP_temperature;BMP_pressure;BME280_temperature;BME280_humidity;BME280_pressure;Samples;Min_cycle;Max_cycle;Signal;HPM_P1;HPM_P2
2022/12/14 00:01:20;;;;;;;2.00;0.40;;;23.40;54.30;;;;;;5036847;28;20041;-65
2022/12/14 00:03:51;;;;;;;4.47;0.45;;;24.30;53.30;;;;;;5038219;28;20053;-65
2022/12/14 00:06:21;;;;;;;7.22;0.75;;;25.30;52.80;;;;;;5039321;28;20071;-65
2022/12/14 00:08:51;;;;;;;1.75;0.45;;;25.90;44.60;;;;;;5040066;28;20108;-67
2022/12/14 00:11:18;;;;;;;4.32;0.70;;;24.70;45.00;;;;;;5038759;28;20096;-66
2022/12/14 00:13:46;;;;;;;10.60;0.82;;;23.40;45.70;;;;;;5038067;28;20033;-66
2022/12/14 00:16:17;;;;;;;3.22;0.65;;;22.90;48.30;;;;;;5038810;28;20025;-65
2022/12/14 00:18:49;;;;;;;3.22;0.65;;;23.00;47.90;;;;;;5038518;28;20014;-66
2022/12/14 00:21:16;;;;;;;3.60;0.63;;;23.30;46.10;;;;;;5041509;28;20025;-67
2022/12/14 00:23:45;;;;;;;8.43;0.65;;;23.10;46.80;;;;;;5050418;28;20096;-65
2022/12/14 00:26:16;;;;;;;15.02;1.70;;;22.90;46.40;;;;;;5050068;28;20029;-65
2022/12/14 00:28:45;;;;;;;5.28;0.50;;;22.90;47.60;;;;;;5050057;28;20456;-64
2022/12/14 00:31:13;;;;;;;9.40;1.00;;;23.50;45.20;;;;;;5050071;28;20025;-66
2022/12/14 00:33:40;;;;;;;1.08;0.60;;;23.30;44.20;;;;;;5050210;28;20024;-65
2022/12/14 00:36:10;;;;;;;6.50;0.57;;;23.20;44.90;;;;;;5050106;28;20025;-67
2022/12/14 00:38:38;;;;;;;6.40;0.88;;;23.00;44.70;;;;;;5050051;28;20028;-66
2022/12/14 00:41:06;;;;;;;7.45;0.73;;;23.80;45.20;;;;;;5048621;28;20603;-67
2022/12/14 00:43:33;;;;;;;10.35;1.25;;;23.50;44.30;;;;;;5049535;28;20052;-67
2022/12/14 00:46:01;;;;;;;9.18;1.73;;;22.90;41.60;;;;;;5050004;28;20033;-63
2022/12/14 00:48:28;;;;;;;4.85;0.90;;;23.30;40.50;;;;;;5038131;28;20029;-64
2022/12/14 00:50:56;;;;;;;10.13;1.02;;;23.30;41.50;;;;;;5040099;28;20017;-64
2022/12/14 00:53:24;;;;;;;3.45;1.00;;;23.30;41.70;;;;;;5038229;28;20033;-65
2022/12/14 00:55:52;;;;;;;3.47;0.65;;;23.40;40.50;;;;;;5037028;28;20034;-64
2022/12/14 00:58:22;;;;;;;1.92;0.85;;;23.80;41.80;;;;;;5040150;28;20345;-65
2022/12/14 01:01:02;;;;;;;2.47;0.47;;;24.50;43.00;;;;;;5037637;28;20629;-64
2022/12/14 01:03:29;;;;;;;8.90;1.23;;;25.60;40.30;;;;;;5039049;28;20118;-65
2022/12/14 01:05:56;;;;;;;4.72;0.77;;;26.10;37.20;;;;;;5032405;28;20025;-62
2022/12/14 01:08:24;;;;;;;3.78;0.73;;;26.20;35.50;;;;;;5029674;28;20026;-63
2022/12/14 01:10:52;;;;;;;5.50;1.02;;;25.80;36.50;;;;;;5039096;28;20108;-62
2022/12/14 01:13:19;;;;;;;8.68;0.80;;;25.40;35.90;;;;;;5038194;28;20021;-63
2022/12/14 01:15:46;;;;;;;7.55;1.40;;;25.30;38.40;;;;;;5038923;28;20078;-64
2022/12/14 01:18:13;;;;;;;5.63;1.13;;;25.60;38.60;;;;;;5038215;28;20457;-63
2022/12/14 01:20:41;;;;;;;3.30;0.70;;;25.80;38.30;;;;;;5037336;28;20059;-62
2022/12/14 01:23:08;;;;;;;2.63;0.88;;;26.20;36.70;;;;;;5046766;28;20137;-65
2022/12/14 01:25:35;;;;;;;5.53;1.30;;;25.80;37.70;;;;;;5048287;28;20021;-67
2022/12/14 01:28:02;;;;;;;2.58;0.80;;;25.60;35.10;;;;;;5053617;28;20035;-68
2022/12/14 01:30:30;;;;;;;3.72;0.65;;;25.80;37.90;;;;;;5039609;28;20398;-63
2022/12/14 01:32:57;;;;;;;5.47;0.85;;;25.70;37.00;;;;;;5033969;28;20032;-61
2022/12/14 01:35:24;;;;;;;2.60;0.80;;;25.70;39.90;;;;;;5033626;28;20024;-61
2022/12/14 01:37:51;;;;;;;3.70;0.60;;;25.70;35.90;;;;;;5033539;28;20022;-61
2022/12/14 01:40:19;;;;;;;1.95;0.60;;;25.90;37.40;;;;;;5032211;28;20021;-61
2022/12/14 01:42:46;;;;;;;2.00;0.52;;;26.50;38.90;;;;;;5033445;28;20091;-61
2022/12/14 01:45:20;;;;;;;5.80;0.70;;;26.70;39.30;;;;;;5033020;28;20144;-61
2022/12/14 01:47:50;;;;;;;;;;;27.30;39.50;;;;;;5033707;28;20044;-61
2022/12/14 01:50:33;;;;;;;3.05;0.45;;;27.00;35.00;;;;;;5033373;28;20358;-61
2022/12/14 01:53:07;;;;;;;1.65;0.50;;;26.80;33.70;;;;;;5033457;28;20017;-63
2022/12/14 01:55:37;;;;;;;;;;;27.00;37.20;;;;;;5033746;28;20508;-62
2022/12/14 01:58:17;;;;;;;2.63;1.10;;;27.30;36.40;;;;;;5033297;28;19967;-62
2022/12/14 02:00:45;;;;;;;2.78;0.50;;;27.20;34.60;;;;;;5033259;28;20017;-61
2022/12/14 02:03:41;;;;;;;2.17;0.50;;;27.10;35.90;;;;;;5031982;28;20037;-61
2022/12/14 02:06:17;;;;;;;1.10;0.38;;;27.10;35.60;;;;;;5044296;28;20044;-61
2022/12/14 02:08:45;;;;;;;3.80;0.80;;;27.30;34.20;;;;;;5051629;28;20025;-61
2022/12/14 02:11:13;;;;;;;4.72;1.08;;;26.70;34.50;;;;;;5052103;28;20029;-61
2022/12/14 02:13:41;;;;;;;0.85;0.60;;;26.60;35.10;;;;;;5052860;28;20047;-61
2022/12/14 02:16:09;;;;;;;0.70;0.40;;;26.70;36.10;;;;;;5052948;28;20024;-62
2022/12/14 02:18:37;;;;;;;0.82;0.25;;;27.10;37.30;;;;;;5052803;28;20515;-62
2022/12/14 02:21:13;;;;;;;7.78;0.60;;;27.60;37.70;;;;;;5052444;28;20125;-63
2022/12/14 02:24:04;;;;;;;4.13;0.70;;;27.80;36.10;;;;;;5052488;28;20021;-62
2022/12/14 02:27:07;;;;;;;6.55;1.08;;;27.60;33.00;;;;;;5052517;28;20132;-63
2022/12/14 02:30:25;;;;;;;1.83;0.38;;;27.30;34.30;;;;;;5052487;28;20025;-61
2022/12/14 02:33:13;;;;;;;2.83;0.75;;;27.20;32.50;;;;;;5050927;28;20124;-62
2022/12/14 02:35:44;;;;;;;1.73;0.45;;;26.80;33.60;;;;;;5051085;28;20432;-62
2022/12/14 02:38:49;;;;;;;4.25;0.50;;;26.80;34.60;;;;;;5052325;28;20389;-62
2022/12/14 02:41:47;;;;;;;1.25;0.50;;;26.90;36.10;;;;;;5051564;28;20025;-62
2022/12/14 02:44:52;;;;;;;2.30;0.47;;;27.00;34.20;;;;;;5050589;28;20404;-62
2022/12/14 02:47:59;;;;;;;3.15;0.95;;;27.40;36.40;;;;;;5051033;28;20071;-62
2022/12/14 02:50:38;;;;;;;4.80;0.80;;;26.60;32.90;;;;;;5052552;28;20044;-63
2022/12/14 02:53:09;;;;;;;7.22;0.73;;;25.60;32.90;;;;;;5052075;28;20025;-63
2022/12/14 02:55:46;;;;;;;12.32;1.10;;;25.70;35.00;;;;;;5050666;28;20530;-60
2022/12/14 02:58:17;;;;;;;1.80;0.65;;;25.90;35.30;;;;;;5052082;28;20477;-68
2022/12/14 03:00:44;;;;;;;5.90;0.90;;;26.00;33.40;;;;;;5051702;28;20211;-68
2022/12/14 03:03:11;;;;;;;2.05;0.45;;;26.10;34.60;;;;;;5049011;28;20656;-67
2022/12/14 03:05:39;;;;;;;7.97;0.60;;;26.50;36.50;;;;;;5049351;28;20032;-68
2022/12/14 03:08:15;;;;;;;0.73;0.25;;;26.90;35.90;;;;;;5049293;28;20090;-68
2022/12/14 03:10:50;;;;;;;2.15;0.50;;;27.40;34.10;;;;;;5049190;28;20028;-68
2022/12/14 03:13:29;;;;;;;4.55;1.45;;;27.70;34.10;;;;;;5049225;28;20029;-68
2022/12/14 03:16:04;;;;;;;2.55;0.75;;;27.90;31.70;;;;;;5049629;28;20036;-69
2022/12/14 03:18:38;;;;;;;5.85;1.38;;;27.90;32.60;;;;;;5048033;28;20033;-69
2022/12/14 03:21:10;;;;;;;6.18;1.58;;;27.30;32.00;;;;;;5049364;28;20017;-69
2022/12/14 03:23:41;;;;;;;5.20;0.45;;;27.10;32.20;;;;;;5049253;28;20035;-69
2022/12/14 03:26:16;;;;;;;14.23;1.10;;;27.20;32.10;;;;;;5035034;28;20018;-69
2022/12/14 03:28:50;;;;;;;2.03;0.38;;;27.40;32.40;;;;;;5030729;28;20112;-69
2022/12/14 03:31:29;;;;;;;0.88;0.40;;;27.20;29.50;;;;;;5031683;28;20048;-68
2022/12/14 03:33:58;;;;;;;12.10;1.02;;;26.90;30.50;;;;;;5031725;28;20044;-67
2022/12/14 03:36:42;;;;;;;16.85;1.23;;;27.00;33.00;;;;;;5031412;28;20026;-68
2022/12/14 03:39:15;;;;;;;4.68;0.40;;;27.30;31.80;;;;;;5030960;28;20080;-62
2022/12/14 03:41:58;;;;;;;7.03;0.57;;;27.10;30.60;;;;;;5031354;28;20068;-62
2022/12/14 03:44:45;;;;;;;16.35;1.50;;;27.00;33.20;;;;;;5031110;28;20043;-62
2022/12/14 03:47:18;;;;;;;4.43;0.40;;;27.00;32.40;;;;;;5029781;28;20052;-62
2022/12/14 03:50:03;;;;;;;17.17;1.20;;;27.00;32.80;;;;;;5029810;28;20027;-62
2022/12/14 03:52:33;;;;;;;7.78;1.27;;;27.10;32.60;;;;;;5029522;28;20075;-62
2022/12/14 03:55:31;;;;;;;14.48;1.67;;;27.00;32.90;;;;;;5029072;28;20099;-65
2022/12/14 03:58:15;;;;;;;5.30;0.60;;;27.00;32.00;;;;;;5029419;28;20525;-62
2022/12/14 04:01:25;;;;;;;9.23;0.50;;;26.80;32.00;;;;;;5029009;28;20030;-62
2022/12/14 04:04:16;;;;;;;0.57;0.30;;;26.40;31.80;;;;;;5034212;28;20030;-62
2022/12/14 04:07:06;;;;;;;4.30;0.70;;;26.50;34.20;;;;;;5029324;28;20042;-68
2022/12/14 04:09:57;;;;;;;18.45;0.93;;;26.70;32.90;;;;;;5030447;28;20075;-67
2022/12/14 04:21:27;;;;;;;4.13;1.08;;;26.60;31.60;;;;;;5030753;28;20048;-68
2022/12/14 04:27:36;;;;;;;21.48;1.13;;;26.30;32.10;;;;;;5030266;28;20136;-68
2022/12/14 04:30:07;;;;;;;3.03;0.40;;;26.40;34.00;;;;;;5030429;28;20453;-68
2022/12/14 04:33:45;;;;;;;3.05;0.50;;;26.80;34.30;;;;;;5030018;28;20474;-69
2022/12/14 04:35:55;;;;;;;11.55;0.90;;;27.00;33.60;;;;;;5030165;28;20042;-68
2022/12/14 04:38:29;;;;;;;22.95;2.13;;;26.30;33.60;;;;;;5030220;28;20034;-68
2022/12/14 04:41:05;;;;;;;8.60;0.77;;;26.20;33.90;;;;;;5030418;28;20065;-68
2022/12/14 04:43:39;;;;;;;3.08;0.43;;;26.10;32.40;;;;;;5029951;28;20115;-69
2022/12/14 04:46:07;;;;;;;;;;;26.10;33.90;;;;;;5030562;28;20026;-68
2022/12/14 04:48:39;;;;;;;1.02;0.30;;;26.50;35.20;;;;;;5029956;28;19916;-68
2022/12/14 04:51:31;;;;;;;1.55;0.30;;;26.60;33.60;;;;;;5029899;28;20056;-68
2022/12/14 04:54:12;;;;;;;11.93;1.15;;;26.30;33.20;;;;;;5030324;28;20029;-68
2022/12/14 04:56:52;;;;;;;1.95;0.50;;;26.10;34.50;;;;;;5030018;28;20022;-68
2022/12/14 04:59:20;;;;;;;9.23;1.70;;;25.70;34.50;;;;;;5030066;28;20032;-68
2022/12/14 05:01:55;;;;;;;3.20;1.33;;;25.70;34.80;;;;;;5028950;28;20453;-70
2022/12/14 05:04:54;;;;;;;7.30;0.80;;;25.80;34.60;;;;;;5030118;28;20040;-68
2022/12/14 05:07:52;;;;;;;9.10;2.58;;;25.70;34.30;;;;;;5040242;28;20072;-69
2022/12/14 05:10:29;;;;;;;7.13;1.15;;;25.40;33.10;;;;;;5029717;28;20540;-68
2022/12/14 05:13:07;;;;;;;6.70;0.65;;;25.40;34.20;;;;;;5029854;28;20091;-68
2022/12/14 05:15:41;;;;;;;5.90;0.55;;;25.20;34.50;;;;;;5029803;28;20460;-67
2022/12/14 05:18:09;;;;;;;1.65;0.73;;;25.20;35.10;;;;;;5031543;28;20029;-68
2022/12/14 05:20:36;;;;;;;6.00;0.85;;;25.20;34.30;;;;;;5037338;28;20024;-69
2022/12/14 05:23:04;;;;;;;3.85;0.45;;;25.40;36.30;;;;;;5038273;28;20025;-69
2022/12/14 05:25:31;;;;;;;1.25;0.20;;;25.40;35.30;;;;;;5039090;28;20025;-68
2022/12/14 05:27:58;;;;;;;3.97;0.57;;;25.20;34.80;;;;;;5037694;28;20079;-68
2022/12/14 05:30:26;;;;;;;0.45;0.20;;;25.40;36.60;;;;;;5038373;28;20017;-67
2022/12/14 05:32:53;;;;;;;4.03;0.30;;;25.20;34.60;;;;;;5039286;28;20029;-70
2022/12/14 05:35:21;;;;;;;2.55;0.22;;;24.80;34.90;;;;;;5043094;28;20618;-70
2022/12/14 05:37:48;;;;;;;7.22;1.08;;;24.70;35.70;;;;;;5037305;28;20390;-70
2022/12/14 05:40:15;;;;;;;2.28;0.40;;;24.90;35.40;;;;;;5038359;28;20017;-71
2022/12/14 05:42:43;;;;;;;4.50;0.38;;;24.80;36.30;;;;;;5039018;28;20308;-69
2022/12/14 05:45:12;;;;;;;1.35;0.40;;;25.00;35.90;;;;;;5037372;28;20048;-68
2022/12/14 05:47:40;;;;;;;5.32;0.82;;;24.90;34.40;;;;;;5037392;28;20029;-69
2022/12/14 05:50:08;;;;;;;9.60;1.10;;;24.70;35.30;;;;;;5039115;28;20107;-70
2022/12/14 05:52:35;;;;;;;7.15;1.20;;;24.80;36.80;;;;;;5039888;28;20033;-70
2022/12/14 05:55:03;;;;;;;3.75;0.60;;;25.00;36.20;;;;;;5029570;28;20616;-71
2022/12/14 05:57:31;;;;;;;6.07;0.65;;;25.20;36.50;;;;;;5029742;28;20057;-63
2022/12/14 05:59:59;;;;;;;1.75;0.50;;;25.20;37.30;;;;;;5029658;28;20100;-63
2022/12/14 06:02:26;;;;;;;4.97;0.47;;;25.20;36.00;;;;;;5029543;28;20155;-63
2022/12/14 06:04:53;;;;;;;10.02;0.85;;;25.10;36.10;;;;;;5029245;28;20363;-63
2022/12/14 06:07:20;;;;;;;3.28;0.35;;;25.10;36.30;;;;;;5029206;28;20041;-63
2022/12/14 06:09:47;;;;;;;8.32;0.77;;;25.20;36.10;;;;;;5029116;28;20037;-63
2022/12/14 06:12:15;;;;;;;11.70;1.42;;;25.00;35.00;;;;;;5030517;28;20030;-64
2022/12/14 06:14:42;;;;;;;8.77;0.75;;;24.60;34.90;;;;;;5032894;28;20029;-64
2022/12/14 06:17:10;;;;;;;1.55;0.20;;;24.60;35.20;;;;;;5032931;28;20029;-63
2022/12/14 06:19:38;;;;;;;7.53;0.57;;;24.50;35.20;;;;;;5032857;28;20037;-63
2022/12/14 06:22:05;;;;;;;8.00;0.70;;;24.50;35.60;;;;;;5032680;28;20022;-63
2022/12/14 06:24:32;;;;;;;3.70;0.57;;;24.60;36.40;;;;;;5032569;28;20063;-63
2022/12/14 06:26:59;;;;;;;8.57;0.50;;;24.70;36.60;;;;;;5033094;28;20033;-62
2022/12/14 06:29:26;;;;;;;3.00;0.60;;;24.70;36.30;;;;;;5035931;28;20033;-61
2022/12/14 06:31:54;;;;;;;7.30;0.60;;;24.60;35.20;;;;;;5033556;28;20059;-62
2022/12/14 06:34:21;;;;;;;4.78;1.13;;;24.30;34.90;;;;;;5032280;28;20332;-63
2022/12/14 06:36:48;;;;;;;11.35;0.90;;;24.20;36.00;;;;;;5032431;28;20021;-69
2022/12/14 06:39:17;;;;;;;4.90;1.23;;;24.10;36.70;;;;;;5039470;28;20049;-68
2022/12/14 06:41:48;;;;;;;17.38;1.02;;;23.90;37.20;;;;;;5039910;28;20021;-70
2022/12/14 06:44:15;;;;;;;11.07;2.10;;;23.90;37.10;;;;;;5040352;28;20033;-68
2022/12/14 06:46:43;;;;;;;6.78;0.60;;;23.80;37.00;;;;;;5040349;28;20110;-68
2022/12/14 06:49:15;;;;;;;2.95;0.40;;;23.80;37.50;;;;;;5040331;28;20017;-69
2022/12/14 06:51:43;;;;;;;4.05;0.73;;;23.80;38.20;;;;;;5040270;28;20233;-70
2022/12/14 06:54:11;;;;;;;3.72;0.52;;;23.60;38.50;;;;;;5040036;28;20067;-68
2022/12/14 06:56:39;;;;;;;4.18;0.40;;;23.50;38.10;;;;;;5039811;28;20382;-70
2022/12/14 06:59:07;;;;;;;9.10;1.00;;;23.30;38.20;;;;;;5040529;28;20012;-70
2022/12/14 07:01:35;;;;;;;8.15;1.02;;;23.10;38.50;;;;;;5039521;28;20029;-69
2022/12/14 07:04:03;;;;;;;12.45;1.60;;;22.80;38.90;;;;;;5040197;28;20028;-70
2022/12/14 07:06:34;;;;;;;6.45;1.30;;;22.50;39.50;;;;;;5039782;28;20504;-69
2022/12/14 07:09:01;;;;;;;4.80;0.55;;;22.50;39.90;;;;;;5039255;28;20040;-70
2022/12/14 07:11:30;;;;;;;4.72;0.95;;;22.50;39.40;;;;;;5038716;28;20095;-70
2022/12/14 07:14:00;;;;;;;7.20;1.30;;;22.40;39.60;;;;;;5037584;28;20108;-70
2022/12/14 07:16:28;;;;;;;4.65;0.60;;;22.30;39.30;;;;;;5040974;28;20025;-70
2022/12/14 07:18:55;;;;;;;9.50;0.75;;;22.40;39.80;;;;;;5040629;28;20110;-68
2022/12/14 07:21:24;;;;;;;9.27;0.75;;;22.10;39.50;;;;;;5040029;28;20104;-70
2022/12/14 07:23:52;;;;;;;3.70;0.40;;;22.00;40.30;;;;;;5039934;28;20025;-70
2022/12/14 07:26:22;;;;;;;8.57;0.73;;;22.00;40.50;;;;;;5040156;28;20025;-70
2022/12/14 07:28:50;;;;;;;9.25;1.58;;;22.00;40.10;;;;;;5039631;28;20470;-69
2022/12/14 07:31:23;;;;;;;9.77;0.90;;;22.00;39.40;;;;;;5041086;28;20031;-69
2022/12/14 07:33:57;;;;;;;22.17;1.45;;;21.80;39.70;;;;;;5040711;28;20035;-69
2022/12/14 07:36:27;;;;;;;10.77;0.80;;;21.70;39.90;;;;;;5039826;28;20020;-68
2022/12/14 07:38:55;;;;;;;8.77;1.02;;;21.60;39.40;;;;;;5041132;28;20428;-69
2022/12/14 07:41:29;;;;;;;7.32;1.10;;;21.40;39.50;;;;;;5039472;28;20654;-72
2022/12/14 07:43:56;;;;;;;;;;;21.30;40.70;;;;;;5037365;28;20135;-69
2022/12/14 07:46:26;;;;;;;13.23;1.90;;;21.20;41.20;;;;;;5031427;28;20008;-71
2022/12/14 07:48:56;;;;;;;2.78;0.60;;;20.90;41.20;;;;;;5036876;28;20037;-69
2022/12/14 07:51:27;;;;;;;4.05;0.60;;;20.70;41.40;;;;;;5031326;28;20025;-69
2022/12/14 07:53:55;;;;;;;11.63;1.77;;;20.50;41.50;;;;;;5038215;28;20032;-69
2022/12/14 07:56:25;;;;;;;11.50;0.68;;;20.40;41.80;;;;;;5034197;28;20026;-67
2022/12/14 07:58:54;;;;;;;3.90;0.50;;;20.20;42.00;;;;;;5039617;28;20773;-67
2022/12/14 08:01:27;;;;;;;4.20;0.80;;;20.10;42.50;;;;;;5031750;28;20041;-68
2022/12/14 08:04:00;;;;;;;14.13;1.48;;;20.00;42.10;;;;;;5033776;28;20421;-69
2022/12/14 08:06:29;;;;;;;11.45;0.80;;;20.00;42.90;;;;;;5038571;28;20032;-71
2022/12/14 08:08:57;;;;;;;13.30;0.80;;;20.00;42.60;;;;;;5037170;28;20025;-68
2022/12/14 08:11:25;;;;;;;4.50;0.60;;;20.00;42.30;;;;;;5042043;28;20021;-70
2022/12/14 08:13:54;;;;;;;10.93;0.63;;;19.90;41.80;;;;;;5032203;28;20052;-69
2022/12/14 08:16:22;;;;;;;1.73;0.50;;;19.80;42.40;;;;;;5030285;28;20025;-68
2022/12/14 08:18:52;;;;;;;3.03;0.40;;;19.70;42.60;;;;;;5031507;28;20057;-64
2022/12/14 08:21:21;;;;;;;18.25;1.10;;;19.70;42.60;;;;;;5040475;28;20093;-63
2022/12/14 08:23:49;;;;;;;2.38;0.50;;;19.60;43.00;;;;;;5038538;28;20036;-64
2022/12/14 08:26:17;;;;;;;0.82;0.30;;;19.60;43.30;;;;;;5043584;28;20474;-65
2022/12/14 08:28:44;;;;;;;1.80;0.28;;;19.50;43.50;;;;;;5030417;28;20029;-64
2022/12/14 08:31:17;;;;;;;0.85;0.20;;;19.30;44.20;;;;;;5034094;28;20099;-66
2022/12/14 08:33:46;;;;;;;2.78;0.28;;;19.30;43.40;;;;;;5033728;28;20051;-66
2022/12/14 08:36:33;;;;;;;0.20;0.17;;;19.20;43.30;;;;;;5039495;28;20024;-66
2022/12/14 08:39:06;;;;;;;1.25;0.25;;;19.10;43.30;;;;;;5037825;28;20056;-67
2022/12/14 08:41:34;;;;;;;0.57;0.20;;;19.00;43.20;;;;;;5044186;28;20062;-63
2022/12/14 08:44:03;;;;;;;4.97;0.35;;;19.00;43.40;;;;;;5044331;28;20041;-63
2022/12/14 08:46:33;;;;;;;2.13;0.40;;;18.90;43.50;;;;;;5037828;28;20071;-63
2022/12/14 08:49:00;;;;;;;1.25;0.40;;;18.80;44.10;;;;;;5035222;28;20033;-62
2022/12/14 08:51:29;;;;;;;17.38;1.45;;;18.70;43.90;;;;;;5060639;28;20027;-62
2022/12/14 08:53:57;;;;;;;3.17;0.40;;;18.60;43.90;;;;;;5047417;28;20056;-62
2022/12/14 08:56:26;;;;;;;3.35;0.75;;;18.50;44.20;;;;;;5050216;28;20025;-62
2022/12/14 08:58:54;;;;;;;3.58;0.45;;;18.40;44.60;;;;;;5048744;28;20033;-61
2022/12/14 09:01:30;;;;;;;2.20;0.60;;;18.30;44.90;;;;;;5039013;28;20021;-62
2022/12/14 09:04:03;;;;;;;2.13;0.30;;;18.30;45.60;;;;;;5035393;28;20057;-62
2022/12/14 09:06:33;;;;;;;1.80;0.15;;;18.20;45.40;;;;;;5039398;28;20131;-66
2022/12/14 09:09:01;;;;;;;1.85;0.82;;;18.10;45.80;;;;;;5030558;28;20041;-66
2022/12/14 09:11:28;;;;;;;2.78;0.40;;;18.00;45.60;;;;;;5029490;28;20029;-62
2022/12/14 09:13:56;;;;;;;0.43;0.32;;;17.90;46.00;;;;;;5032774;28;20112;-61
2022/12/14 09:16:27;;;;;;;1.30;0.55;;;17.90;46.10;;;;;;5042005;28;20032;-61
2022/12/14 09:18:55;;;;;;;1.40;0.10;;;17.70;46.30;;;;;;5029618;28;20033;-61
2022/12/14 09:21:23;;;;;;;2.35;0.30;;;17.80;46.70;;;;;;5045467;28;20574;-61
2022/12/14 09:23:51;;;;;;;2.80;0.45;;;17.80;46.40;;;;;;5051449;28;20027;-62
2022/12/14 09:26:21;;;;;;;4.97;0.45;;;17.80;46.70;;;;;;5059012;28;20043;-60
2022/12/14 09:28:51;;;;;;;1.42;0.35;;;17.80;46.60;;;;;;5054967;28;20476;-62
2022/12/14 09:31:21;;;;;;;4.03;0.70;;;17.70;47.10;;;;;;5043883;28;20063;-62
2022/12/14 09:33:48;;;;;;;1.10;0.38;;;17.70;47.10;;;;;;5058068;28;20025;-62
2022/12/14 09:36:21;;;;;;;3.30;0.55;;;17.70;47.20;;;;;;5047182;28;20074;-62
2022/12/14 09:38:53;;;;;;;2.38;0.50;;;17.60;47.50;;;;;;5048619;28;20080;-61
2022/12/14 09:41:23;;;;;;;2.05;0.50;;;17.50;48.20;;;;;;5033631;28;20053;-60
2022/12/14 09:44:30;;;;;;;9.52;0.60;;;17.40;48.20;;;;;;5035256;28;20052;-61
2022/12/14 09:47:09;;;;;;;1.90;0.47;;;17.30;48.80;;;;;;5047269;28;20083;-61
2022/12/14 09:49:42;;;;;;;6.78;0.50;;;17.20;48.90;;;;;;5043904;28;20111;-61
2022/12/14 09:52:18;;;;;;;7.15;0.98;;;17.10;49.10;;;;;;5031690;28;20029;-60
2022/12/14 09:54:47;;;;;;;1.17;0.20;;;17.00;49.20;;;;;;5043257;28;20102;-61
2022/12/14 09:57:37;;;;;;;6.47;0.77;;;17.00;49.90;;;;;;5059467;28;20039;-62
2022/12/14 10:00:17;;;;;;;2.05;0.40;;;16.80;49.60;;;;;;5039740;28;20821;-61
2022/12/14 10:02:56;;;;;;;11.70;2.65;;;16.80;50.10;;;;;;5037545;28;20509;-61
2022/12/14 10:05:44;;;;;;;1.02;0.30;;;16.70;50.10;;;;;;5054865;28;20047;-61
2022/12/14 10:08:20;;;;;;;0.30;0.10;;;16.70;50.40;;;;;;5032124;28;20443;-61
2022/12/14 10:11:12;;;;;;;1.30;0.20;;;16.60;50.40;;;;;;5055330;28;20086;-61
2022/12/14 10:14:13;;;;;;;0.22;0.15;;;16.60;50.80;;;;;;5033752;28;20029;-61
2022/12/14 10:17:04;;;;;;;1.98;0.30;;;16.40;51.10;;;;;;5034364;28;20045;-61
2022/12/14 10:19:58;;;;;;;1.65;0.20;;;16.40;51.30;;;;;;5045489;28;20048;-61
2022/12/14 10:22:39;;;;;;;2.20;0.30;;;16.20;51.90;;;;;;5037337;28;20453;-61
2022/12/14 10:25:17;;;;;;;0.88;0.22;;;16.10;52.40;;;;;;5045761;28;20040;-62
2022/12/14 10:27:51;;;;;;;0.77;0.20;;;16.00;52.60;;;;;;5043156;28;20041;-67
2022/12/14 10:30:23;;;;;;;1.60;0.28;;;15.90;52.50;;;;;;5042537;28;20024;-69
2022/12/14 10:32:55;;;;;;;0.70;0.30;;;15.70;53.00;;;;;;5044367;28;20037;-65
2022/12/14 10:35:50;;;;;;;0.80;0.15;;;15.60;53.10;;;;;;5048908;28;20025;-65
2022/12/14 10:38:31;;;;;;;1.88;0.28;;;15.40;53.20;;;;;;5044949;28;20385;-64
2022/12/14 10:41:20;;;;;;;1.38;0.17;;;15.20;54.10;;;;;;5038714;28;20098;-65
2022/12/14 10:43:53;;;;;;;0.77;0.20;;;15.00;54.50;;;;;;5056728;28;20095;-64
2022/12/14 10:46:27;;;;;;;0.35;0.20;;;14.90;54.80;;;;;;5041158;28;20025;-65
2022/12/14 10:49:31;;;;;;;0.43;0.30;;;14.80;55.10;;;;;;5036501;28;20402;-64
2022/12/14 10:52:21;;;;;;;0.65;0.20;;;14.70;55.30;;;;;;5050624;28;20035;-64
2022/12/14 10:55:21;;;;;;;0.98;0.25;;;14.70;56.20;;;;;;5038544;28;20486;-63
2022/12/14 10:57:49;;;;;;;0.32;0.20;;;14.80;55.90;;;;;;5040954;28;20029;-64
2022/12/14 11:00:17;;;;;;;2.55;0.45;;;15.00;55.80;;;;;;5034857;28;20101;-65
2022/12/14 11:02:49;;;;;;;1.58;0.40;;;15.00;55.60;;;;;;5039765;28;20049;-65
2022/12/14 11:05:45;;;;;;;2.10;0.57;;;14.90;55.60;;;;;;5058164;28;20414;-64
2022/12/14 11:08:39;;;;;;;2.28;0.43;;;14.70;55.60;;;;;;5032676;28;20029;-64
2022/12/14 11:11:12;;;;;;;0.82;0.50;;;14.50;55.90;;;;;;5035887;28;20482;-67
2022/12/14 11:13:46;;;;;;;2.30;0.50;;;14.40;56.00;;;;;;5038150;28;20025;-64
2022/12/14 11:16:35;;;;;;;1.02;0.50;;;14.30;56.60;;;;;;5034985;28;20063;-64
2022/12/14 11:19:05;;;;;;;3.10;0.40;;;14.10;57.20;;;;;;5051837;28;20025;-65
2022/12/14 11:21:36;;;;;;;1.45;0.40;;;14.00;57.60;;;;;;5047967;28;20044;-64
2022/12/14 11:24:05;;;;;;;3.00;0.60;;;13.90;58.30;;;;;;5041558;28;20087;-64
2022/12/14 11:26:41;;;;;;;1.80;0.75;;;13.80;58.40;;;;;;5037803;28;20048;-65
2022/12/14 11:29:39;;;;;;;3.65;0.50;;;13.70;58.40;;;;;;5032035;28;20494;-64
2022/12/14 11:32:15;;;;;;;1.25;0.52;;;13.60;58.80;;;;;;5035891;28;20040;-63
2022/12/14 11:34:42;;;;;;;1.23;0.40;;;13.50;59.20;;;;;;5037744;28;20029;-62
2022/12/14 11:37:25;;;;;;;3.35;0.60;;;13.40;59.30;;;;;;5034848;28;20028;-63
2022/12/14 11:39:59;;;;;;;2.40;1.02;;;13.30;59.50;;;;;;5047468;28;20028;-63
2022/12/14 11:42:27;;;;;;;1.30;0.50;;;13.30;60.10;;;;;;5042636;28;20086;-62
2022/12/14 11:45:14;;;;;;;1.50;0.45;;;13.10;60.40;;;;;;5037027;28;20320;-63
2022/12/14 11:47:41;;;;;;;1.50;0.45;;;13.10;61.10;;;;;;5036940;28;20041;-63
2022/12/14 11:50:24;;;;;;;0.93;0.40;;;13.00;61.40;;;;;;5030273;28;20430;-62
2022/12/14 11:53:02;;;;;;;1.58;0.47;;;12.90;61.40;;;;;;5034587;28;20033;-63
2022/12/14 11:55:30;;;;;;;1.38;0.45;;;12.80;62.00;;;;;;5033867;28;20056;-63
2022/12/14 11:58:00;;;;;;;0.95;0.30;;;12.70;62.50;;;;;;5033101;28;20508;-63
2022/12/14 12:00:34;;;;;;;2.13;0.40;;;12.70;63.70;;;;;;5037983;28;20033;-63
2022/12/14 12:03:05;;;;;;;1.63;0.50;;;12.90;63.60;;;;;;5047977;28;20048;-63
2022/12/14 12:05:38;;;;;;;1.90;0.30;;;12.90;63.30;;;;;;5038188;28;20027;-63
2022/12/14 12:08:15;;;;;;;1.92;0.75;;;13.00;64.00;;;;;;5047392;28;20044;-61
2022/12/14 12:10:45;;;;;;;1.35;0.45;;;13.00;64.00;;;;;;5047690;28;20378;-62
2022/12/14 12:13:38;;;;;;;1.27;0.50;;;12.90;64.00;;;;;;5033088;28;20056;-63
2022/12/14 12:16:17;;;;;;;1.25;0.45;;;12.90;64.50;;;;;;5037569;28;20358;-64
2022/12/14 12:18:49;;;;;;;2.40;0.70;;;13.00;64.60;;;;;;5045678;28;20021;-63
2022/12/14 12:21:23;;;;;;;1.42;0.40;;;13.10;64.80;;;;;;5060729;28;20032;-62
2022/12/14 12:24:11;;;;;;;0.55;0.40;;;13.00;64.50;;;;;;5042735;28;20029;-62
2022/12/14 12:26:44;;;;;;;1.55;0.32;;;13.00;64.70;;;;;;5045536;28;20024;-63
2022/12/14 12:29:53;;;;;;;2.05;0.30;;;12.90;64.40;;;;;;5053448;28;20044;-62
2022/12/14 12:32:33;;;;;;;1.48;0.28;;;13.00;64.90;;;;;;5048653;28;20449;-63
2022/12/14 12:35:15;;;;;;;0.63;0.38;;;12.80;64.90;;;;;;5045602;28;20040;-64
2022/12/14 12:37:59;;;;;;;3.25;0.82;;;12.70;64.80;;;;;;5047171;28;20093;-63
2022/12/14 12:40:29;;;;;;;7.68;0.55;;;12.50;66.10;;;;;;5035722;28;20078;-64
2022/12/14 12:43:10;;;;;;;7.93;0.57;;;12.50;68.40;;;;;;5035621;28;20026;-63
2022/12/14 12:45:45;;;;;;;7.88;1.20;;;12.50;68.10;;;;;;5040160;28;20044;-63
2022/12/14 12:48:18;;;;;;;7.47;0.68;;;12.70;67.90;;;;;;5033502;28;20044;-62
2022/12/14 12:50:57;;;;;;;8.75;0.80;;;12.50;67.70;;;;;;5040809;28;20521;-62
2022/12/14 12:53:30;;;;;;;3.47;0.50;;;12.40;67.50;;;;;;5029677;28;20551;-63
2022/12/14 12:56:11;;;;;;;1.92;0.45;;;12.30;70.00;;;;;;5037539;28;20025;-63
2022/12/14 12:58:40;;;;;;;4.38;0.55;;;12.40;70.40;;;;;;5038331;28;20029;-62
2022/12/14 13:01:21;;;;;;;5.40;0.40;;;12.30;70.40;;;;;;5031856;28;20017;-62
2022/12/14 13:03:52;;;;;;;0.75;0.20;;;12.10;70.30;;;;;;5037111;28;20094;-63
2022/12/14 13:06:39;;;;;;;2.63;0.70;;;12.00;70.30;;;;;;5035493;28;20022;-63
2022/12/14 13:09:41;;;;;;;1.10;0.55;;;11.90;70.20;;;;;;5043539;28;20037;-61
2022/12/14 13:12:35;;;;;;;1.10;0.45;;;11.80;72.40;;;;;;5048040;28;20462;-62
2022/12/14 13:15:07;;;;;;;3.95;0.75;;;12.00;72.60;;;;;;5043145;28;20091;-63
2022/12/14 13:17:42;;;;;;;2.17;0.35;;;12.00;72.90;;;;;;5034008;28;20127;-64
2022/12/14 13:20:36;;;;;;;1.67;0.63;;;12.00;73.10;;;;;;5034249;28;20105;-63
2022/12/14 13:23:04;;;;;;;5.15;0.60;;;12.00;73.10;;;;;;5029962;28;20029;-65
2022/12/14 13:25:40;;;;;;;1.65;0.40;;;11.90;72.90;;;;;;5041511;28;20032;-63
2022/12/14 13:28:37;;;;;;;1.08;0.50;;;11.90;72.90;;;;;;5032392;28;20051;-62
2022/12/14 13:31:34;;;;;;;5.05;0.85;;;11.90;73.50;;;;;;5037785;28;20025;-63
2022/12/14 13:34:28;;;;;;;20.50;1.45;;;11.90;74.30;;;;;;5043932;28;20041;-63
2022/12/14 13:37:07;;;;;;;16.80;1.27;;;12.00;74.30;;;;;;5041259;28;20025;-61